createdAt,value
2022-12-09T00:04:23.146Z,35.13
2022-12-09T00:07:09.358Z,52.05
2022-12-09T00:09:55.279Z,44.40
2022-12-09T00:12:42.633Z,45.58
2022-12-09T00:15:28.572Z,48.40
2022-12-09T00:18:14.508Z,46.22
2022-12-09T00:21:14.552Z,56.20
2022-12-09T00:24:03.822Z,50.33
2022-12-09T00:26:49.630Z,49.97
2022-12-09T00:29:35.472Z,58.17
2022-12-09T00:32:21.372Z,53.55
2022-12-09T00:35:08.533Z,54.28
2022-12-09T00:37:54.805Z,48.30
2022-12-09T00:40:40.771Z,54.28
2022-12-09T00:43:26.714Z,56.03
2022-12-09T00:46:14.051Z,51.33
2022-12-09T00:49:00.151Z,57.28
2022-12-09T00:51:46.491Z,52.47
2022-12-09T00:54:32.885Z,56.17
2022-12-09T00:57:19.300Z,54.78
2022-12-09T01:00:07.292Z,55.33
2022-12-09T01:02:53.941Z,55.60
2022-12-09T01:05:41.275Z,55.67
2022-12-09T01:08:27.519Z,48.92
2022-12-09T01:11:19.959Z,49.25
2022-12-09T01:14:07.143Z,51.00
2022-12-09T01:16:53.529Z,47.33
2022-12-09T01:19:40.535Z,46.70
2022-12-09T01:22:26.530Z,50.40
2022-12-09T01:25:12.935Z,56.97
2022-12-09T01:27:58.701Z,51.78
2022-12-09T01:30:45.156Z,47.85
2022-12-09T01:33:31.083Z,57.50
2022-12-09T01:36:19.643Z,53.60
2022-12-09T01:39:05.752Z,50.40
2022-12-09T01:41:52.902Z,55.88
2022-12-09T01:44:38.881Z,54.83
2022-12-09T01:47:25.075Z,54.33
2022-12-09T01:50:11.735Z,62.13
2022-12-09T01:52:57.897Z,57.20
2022-12-09T01:55:45.854Z,50.63
2022-12-09T01:58:32.124Z,51.08
2022-12-09T02:01:18.384Z,48.45
2022-12-09T02:04:04.887Z,55.22
2022-12-09T02:06:51.118Z,63.17
2022-12-09T02:09:39.458Z,52.72
2022-12-09T02:12:30.664Z,51.42
2022-12-09T02:15:31.676Z,52.17
2022-12-09T02:18:41.536Z,52.90
2022-12-09T02:21:34.045Z,60.85
2022-12-09T02:24:34.804Z,54.10
2022-12-09T02:27:25.347Z,51.58
2022-12-09T02:30:21.896Z,50.58
2022-12-09T02:33:28.818Z,50.28
2022-12-09T02:36:17.714Z,49.38
2022-12-09T02:39:06.862Z,47.67
2022-12-09T02:41:53.503Z,51.30
2022-12-09T02:44:40.835Z,49.83
2022-12-09T02:47:31.882Z,58.13
2022-12-09T02:50:23.496Z,50.83
2022-12-09T02:53:12.942Z,48.83
2022-12-09T02:55:59.311Z,51.10
2022-12-09T02:58:50.337Z,53.10
2022-12-09T03:01:50.063Z,51.08
2022-12-09T03:04:39.252Z,58.33
2022-12-09T03:07:32.706Z,51.05
2022-12-09T03:10:27.641Z,46.03
2022-12-09T03:13:20.050Z,62.42
2022-12-09T03:16:13.298Z,52.28
2022-12-09T03:19:33.759Z,52.15
2022-12-09T03:22:21.353Z,48.60
2022-12-09T03:25:21.964Z,47.92
2022-12-09T03:28:12.383Z,55.30
2022-12-09T03:31:02.596Z,46.30
2022-12-09T03:33:52.946Z,39.85
2022-12-09T03:36:40.968Z,40.90
2022-12-09T03:39:30.170Z,43.13
2022-12-09T03:42:23.546Z,52.55
2022-12-09T03:45:12.268Z,47.45
2022-12-09T03:47:58.662Z,42.90
2022-12-09T03:50:56.008Z,46.85
2022-12-09T03:53:46.760Z,50.53
2022-12-09T03:56:37.889Z,47.58
2022-12-09T03:59:25.671Z,45.08
2022-12-09T04:02:11.872Z,50.25
2022-12-09T04:04:58.027Z,48.63
2022-12-09T04:07:44.080Z,49.28
2022-12-09T04:10:32.851Z,49.22
2022-12-09T04:13:19.174Z,41.15
2022-12-09T04:16:06.023Z,48.97
2022-12-09T04:18:52.312Z,42.13
2022-12-09T04:21:38.587Z,50.10
2022-12-09T04:24:24.956Z,46.90
2022-12-09T04:27:12.577Z,46.47
2022-12-09T04:29:58.944Z,51.58
2022-12-09T04:32:45.282Z,50.53
2022-12-09T04:35:31.472Z,44.78
2022-12-09T04:38:17.470Z,50.03
2022-12-09T04:41:04.262Z,49.88
2022-12-09T04:43:50.397Z,47.28
2022-12-09T04:46:36.642Z,47.33
2022-12-09T04:49:22.897Z,49.17
2022-12-09T04:52:08.811Z,43.70
2022-12-09T04:54:54.720Z,51.38
2022-12-09T04:57:40.901Z,54.33
2022-12-09T05:00:26.921Z,41.20
2022-12-09T05:03:13.113Z,71.45
2022-12-09T05:05:59.828Z,66.95
2022-12-09T05:08:46.588Z,56.90
2022-12-09T05:11:33.040Z,61.95
2022-12-09T05:14:19.147Z,60.88
2022-12-09T05:17:07.264Z,60.70
2022-12-09T05:19:53.699Z,51.58
2022-12-09T05:22:40.075Z,45.20
2022-12-09T05:25:26.074Z,48.63
2022-12-09T05:28:12.271Z,52.83
2022-12-09T05:31:07.086Z,50.22
2022-12-09T05:33:54.089Z,48.35
2022-12-09T05:36:40.443Z,51.63
2022-12-09T05:39:26.751Z,54.72
2022-12-09T05:42:12.948Z,49.80
2022-12-09T05:45:00.453Z,47.92
2022-12-09T05:47:47.021Z,50.80
2022-12-09T05:50:33.519Z,50.45
2022-12-09T05:53:19.885Z,57.63
2022-12-09T05:56:06.201Z,50.78
2022-12-09T05:58:54.016Z,48.53
2022-12-09T06:01:39.864Z,43.88
2022-12-09T06:04:26.185Z,42.03
2022-12-09T06:07:12.372Z,45.90
2022-12-09T06:09:59.535Z,48.83
2022-12-09T06:12:45.997Z,43.78
2022-12-09T06:15:33.793Z,45.60
2022-12-09T06:18:20.607Z,48.63
2022-12-09T06:21:12.165Z,36.03
2022-12-09T06:23:59.321Z,46.63
2022-12-09T06:26:46.003Z,46.85
2022-12-09T06:29:32.112Z,57.78
2022-12-09T06:32:19.022Z,42.45
2022-12-09T06:35:08.070Z,47.15
2022-12-09T06:37:54.725Z,48.58
2022-12-09T06:40:44.763Z,48.13
2022-12-09T06:43:31.141Z,51.35
2022-12-09T06:46:25.364Z,50.30
2022-12-09T06:49:12.728Z,48.33
2022-12-09T06:51:58.859Z,46.97
2022-12-09T06:54:44.964Z,46.08
2022-12-09T06:57:31.284Z,43.85
2022-12-09T07:00:17.744Z,42.80
2022-12-09T07:03:04.773Z,42.67
2022-12-09T07:05:50.928Z,40.55
2022-12-09T07:08:37.696Z,44.47
2022-12-09T07:11:24.072Z,46.97
2022-12-09T07:14:11.087Z,50.10
2022-12-09T07:16:57.539Z,51.50
2022-12-09T07:19:44.195Z,40.70
2022-12-09T07:22:32.546Z,49.72
2022-12-09T07:25:18.669Z,45.45
2022-12-09T07:28:04.998Z,53.35
2022-12-09T07:30:50.878Z,63.95
2022-12-09T07:33:36.921Z,50.47
2022-12-09T07:36:25.279Z,52.95
2022-12-09T07:39:14.183Z,46.60
2022-12-09T07:42:00.817Z,64.82
2022-12-09T07:44:50.387Z,57.95
2022-12-09T07:47:36.686Z,53.33
2022-12-09T07:50:23.421Z,54.55
2022-12-09T07:53:09.902Z,50.78
2022-12-09T07:55:56.514Z,71.43
2022-12-09T07:58:44.043Z,64.60
2022-12-09T08:01:30.601Z,67.07
2022-12-09T08:04:17.315Z,68.03
2022-12-09T08:07:03.978Z,53.67
2022-12-09T08:09:50.682Z,65.63
2022-12-09T08:12:36.867Z,66.63
2022-12-09T08:15:23.232Z,57.22
2022-12-09T08:18:09.506Z,64.65
2022-12-09T08:20:56.042Z,65.60
2022-12-09T08:23:42.863Z,68.13
2022-12-09T08:26:31.401Z,64.88
2022-12-09T08:29:18.296Z,87.90
2022-12-09T08:32:05.433Z,61.22
2022-12-09T08:34:52.003Z,56.00
2022-12-09T08:37:38.175Z,48.85
2022-12-09T08:40:24.625Z,57.40
2022-12-09T08:43:10.791Z,55.67
2022-12-09T08:46:00.350Z,66.20
2022-12-09T08:48:46.486Z,57.92
2022-12-09T08:51:32.801Z,59.78
2022-12-09T08:54:19.879Z,56.92
2022-12-09T08:57:06.432Z,54.97
2022-12-09T08:59:53.213Z,63.50
2022-12-09T09:02:39.410Z,50.08
2022-12-09T09:05:26.009Z,50.47
2022-12-09T09:08:12.633Z,59.63
2022-12-09T09:10:59.426Z,72.00
2022-12-09T09:13:48.967Z,59.08
2022-12-09T09:16:38.797Z,60.15
2022-12-09T09:19:26.165Z,55.20
2022-12-09T09:22:13.208Z,53.40
2022-12-09T09:24:59.555Z,51.38
2022-12-09T09:27:45.883Z,52.50
2022-12-09T09:30:32.313Z,46.10
2022-12-09T09:33:18.733Z,49.25
2022-12-09T09:36:23.134Z,48.95
2022-12-09T09:39:20.041Z,66.13
2022-12-09T09:42:09.081Z,60.83
2022-12-09T09:44:56.260Z,62.83
2022-12-09T09:47:55.226Z,56.08
2022-12-09T09:51:02.965Z,56.38
2022-12-09T09:53:51.329Z,55.17
2022-12-09T09:56:46.500Z,56.90
2022-12-09T09:59:41.131Z,78.93
2022-12-09T10:02:58.779Z,67.13
2022-12-09T10:05:58.525Z,73.30
2022-12-09T10:08:56.253Z,60.58
2022-12-09T10:11:56.296Z,57.42
2022-12-09T10:15:15.131Z,61.85
2022-12-09T10:18:11.307Z,62.72
2022-12-09T10:20:58.137Z,66.07
2022-12-09T10:23:45.989Z,53.33
2022-12-09T10:26:32.787Z,66.45
2022-12-09T10:29:25.926Z,67.05
2022-12-09T10:32:17.076Z,69.10
2022-12-09T10:35:23.590Z,76.80
2022-12-09T10:38:16.250Z,65.75
2022-12-09T10:42:11.351Z,66.90
2022-12-09T10:45:07.915Z,68.20
2022-12-09T10:47:54.819Z,71.38
2022-12-09T10:50:42.012Z,80.32
2022-12-09T10:53:29.304Z,61.58
2022-12-09T10:56:21.836Z,88.32
2022-12-09T10:59:27.260Z,87.32
2022-12-09T11:02:13.650Z,77.43
2022-12-09T11:05:24.515Z,61.83
2022-12-09T11:08:22.221Z,70.15
2022-12-09T11:11:09.345Z,64.55
2022-12-09T11:13:55.918Z,60.42
2022-12-09T11:16:47.479Z,49.17
2022-12-09T11:19:36.327Z,72.80
2022-12-09T11:22:33.522Z,63.00
2022-12-09T11:25:23.915Z,74.55
2022-12-09T11:28:16.520Z,68.32
2022-12-09T11:31:32.663Z,64.65
2022-12-09T11:34:26.304Z,80.28
2022-12-09T11:37:12.476Z,62.47
2022-12-09T11:39:58.687Z,59.65
2022-12-09T11:42:50.819Z,58.00
2022-12-09T11:45:39.310Z,53.63
2022-12-09T11:48:35.050Z,64.32
2022-12-09T11:51:36.587Z,46.72
2022-12-09T11:54:26.495Z,45.30
2022-12-09T11:57:31.004Z,56.22
2022-12-09T12:00:23.384Z,48.22
2022-12-09T12:03:20.630Z,35.28
2022-12-09T12:06:17.068Z,43.35
2022-12-09T12:09:08.116Z,32.25
2022-12-09T12:12:03.371Z,58.47
2022-12-09T12:14:49.301Z,41.47
2022-12-09T12:17:43.054Z,47.40
2022-12-09T12:20:58.427Z,44.50
2022-12-09T12:24:14.862Z,36.22
2022-12-09T12:27:18.881Z,49.10
2022-12-09T12:30:19.856Z,37.63
2022-12-09T12:33:59.655Z,34.22
2022-12-09T12:36:35.990Z,43.63
2022-12-09T12:39:54.365Z,37.55
2022-12-09T12:43:10.301Z,44.40
2022-12-09T12:46:18.830Z,39.45
2022-12-09T12:49:36.284Z,55.03
2022-12-09T12:55:46.864Z,39.42
2022-12-09T12:58:51.809Z,49.60
2022-12-09T13:02:02.482Z,46.97
2022-12-09T13:05:00.916Z,44.47
2022-12-09T13:08:07.698Z,43.88
2022-12-09T13:10:56.107Z,37.72
2022-12-09T13:13:49.245Z,43.45
2022-12-09T13:16:40.279Z,36.75
2022-12-09T13:19:41.164Z,33.67
2022-12-09T13:22:32.978Z,49.42
2022-12-09T13:25:50.352Z,41.42
2022-12-09T13:29:00.157Z,46.00
2022-12-09T13:31:55.443Z,44.85
2022-12-09T13:34:50.079Z,45.35
2022-12-09T13:37:44.234Z,44.35
2022-12-09T13:40:36.691Z,37.83
2022-12-09T13:43:26.114Z,37.55
2022-12-09T13:46:21.594Z,37.42
2022-12-09T13:49:18.214Z,40.22
2022-12-09T13:52:04.488Z,45.08
2022-12-09T13:54:51.195Z,45.60
2022-12-09T13:57:47.695Z,40.20
2022-12-09T14:00:34.577Z,36.60
2022-12-09T14:03:29.658Z,36.90
2022-12-09T14:06:22.140Z,38.53
2022-12-09T14:09:17.237Z,42.22
2022-12-09T14:12:10.593Z,38.30
2022-12-09T14:14:58.629Z,36.63
2022-12-09T14:17:47.986Z,32.30
2022-12-09T14:20:39.161Z,51.72
2022-12-09T14:23:25.418Z,34.28
2022-12-09T14:26:54.364Z,34.70
2022-12-09T14:29:55.510Z,46.50
2022-12-09T14:32:50.443Z,33.53
2022-12-09T14:35:44.404Z,33.67
2022-12-09T14:39:07.791Z,30.08
2022-12-09T14:41:59.543Z,35.67
2022-12-09T14:44:53.397Z,39.72
2022-12-09T14:47:46.127Z,39.78
2022-12-09T14:50:31.895Z,38.55
2022-12-09T14:53:22.542Z,34.35
2022-12-09T14:56:15.401Z,38.38
2022-12-09T14:59:09.640Z,52.95
2022-12-09T15:02:19.084Z,45.60
2022-12-09T15:05:16.121Z,38.03
2022-12-09T15:08:02.205Z,31.10
2022-12-09T15:10:48.084Z,32.25
2022-12-09T15:13:36.151Z,48.15
2022-12-09T15:16:25.009Z,32.95
2022-12-09T15:19:36.926Z,37.05
2022-12-09T15:22:28.260Z,30.33
2022-12-09T15:25:18.872Z,35.33
2022-12-09T15:28:14.060Z,27.85
2022-12-09T15:31:06.319Z,34.47
2022-12-09T15:33:58.516Z,31.08
2022-12-09T15:36:48.333Z,34.87
2022-12-09T15:39:45.347Z,31.45
2022-12-09T15:42:33.216Z,30.20
2022-12-09T15:45:25.871Z,30.67
2022-12-09T15:48:18.864Z,31.83
2022-12-09T15:51:09.095Z,31.70
2022-12-09T15:54:07.734Z,34.67
2022-12-09T15:56:55.482Z,44.38
2022-12-09T15:59:43.324Z,50.00
2022-12-09T16:02:31.145Z,45.65
2022-12-09T16:05:25.168Z,40.50
2022-12-09T16:08:11.239Z,38.30
2022-12-09T16:10:58.689Z,43.60
2022-12-09T16:13:58.994Z,35.10
2022-12-09T16:16:54.474Z,31.30
2022-12-09T16:19:40.729Z,36.90
2022-12-09T16:22:30.647Z,32.88
2022-12-09T16:25:21.733Z,37.03
2022-12-09T16:28:07.705Z,42.22
2022-12-09T16:30:59.280Z,27.20
2022-12-09T16:33:49.447Z,35.00
2022-12-09T16:36:35.679Z,36.70
2022-12-09T16:39:24.761Z,35.20
2022-12-09T16:42:43.646Z,33.10
2022-12-09T16:45:33.062Z,35.17
2022-12-09T16:48:20.503Z,44.92
2022-12-09T16:51:11.780Z,26.95
2022-12-09T16:53:58.849Z,33.20
2022-12-09T16:56:45.574Z,44.88
2022-12-09T16:59:37.545Z,37.85
2022-12-09T17:02:33.559Z,34.25
2022-12-09T17:05:19.522Z,35.10
2022-12-09T17:08:05.730Z,44.00
2022-12-09T17:10:51.870Z,41.88
2022-12-09T17:13:38.049Z,35.20
2022-12-09T17:16:26.712Z,40.50
2022-12-09T17:19:13.165Z,42.08
2022-12-09T17:21:59.441Z,39.47
2022-12-09T17:24:45.692Z,37.97
2022-12-09T17:27:32.618Z,29.52
2022-12-09T17:30:18.701Z,31.00
2022-12-09T17:33:05.026Z,22.52
2022-12-09T17:35:51.786Z,31.60
2022-12-09T17:38:38.008Z,28.83
2022-12-09T17:41:24.309Z,34.03
2022-12-09T17:44:10.653Z,30.92
2022-12-09T17:46:56.997Z,46.83
2022-12-09T17:49:42.907Z,41.03
2022-12-09T17:52:29.020Z,27.10
2022-12-09T17:55:14.912Z,35.00
2022-12-09T17:58:01.073Z,36.08
2022-12-09T18:00:47.958Z,39.67
2022-12-09T18:03:54.869Z,43.72
2022-12-09T18:06:45.290Z,43.60
2022-12-09T18:09:31.176Z,43.65
2022-12-09T18:12:17.191Z,41.63
2022-12-09T18:15:03.958Z,46.90
2022-12-09T18:17:50.134Z,39.75
2022-12-09T18:20:38.599Z,36.97
2022-12-09T18:23:24.600Z,45.95
2022-12-09T18:26:16.798Z,37.17
2022-12-09T18:29:02.921Z,34.13
2022-12-09T18:31:54.182Z,44.72
2022-12-09T18:34:40.715Z,38.88
2022-12-09T18:37:27.286Z,35.65
2022-12-09T18:40:13.688Z,39.03
2022-12-09T18:43:00.022Z,38.20
2022-12-09T18:45:46.619Z,47.45
2022-12-09T18:48:33.239Z,31.10
2022-12-09T18:51:21.258Z,35.13
2022-12-09T18:54:08.546Z,44.67
2022-12-09T18:56:55.819Z,34.53
2022-12-09T18:59:42.096Z,43.33
2022-12-09T19:02:28.612Z,37.95
2022-12-09T19:05:14.908Z,41.58
2022-12-09T19:08:01.193Z,40.85
2022-12-09T19:10:54.593Z,32.58
2022-12-09T19:13:41.076Z,35.95
2022-12-09T19:16:28.710Z,40.90
2022-12-09T19:19:17.528Z,36.72
2022-12-09T19:22:06.361Z,34.70
2022-12-09T19:24:52.523Z,31.55
2022-12-09T19:27:38.910Z,29.67
2022-12-09T19:30:24.878Z,40.15
2022-12-09T19:33:11.418Z,33.00
2022-12-09T19:35:57.628Z,31.65
2022-12-09T19:38:43.689Z,27.88
2022-12-09T19:41:29.588Z,31.23
2022-12-09T19:44:30.986Z,29.90
2022-12-09T19:47:23.672Z,33.58
2022-12-09T19:50:10.380Z,28.25
2022-12-09T19:52:56.842Z,38.53
2022-12-09T19:55:43.708Z,42.13
2022-12-09T19:58:31.291Z,43.60
2022-12-09T20:01:22.990Z,28.40
2022-12-09T20:04:46.329Z,38.20
2022-12-09T20:07:17.516Z,30.38
2022-12-09T20:10:04.441Z,34.97
2022-12-09T20:12:51.065Z,27.80
2022-12-09T20:15:37.660Z,32.83
2022-12-09T20:18:23.741Z,35.03
2022-12-09T20:21:12.096Z,28.83
2022-12-09T20:24:02.477Z,33.35
2022-12-09T20:26:48.871Z,27.67
2022-12-09T20:29:38.026Z,26.10
2022-12-09T20:32:24.818Z,25.48
2022-12-09T20:35:11.222Z,18.63
2022-12-09T20:37:57.500Z,24.42
2022-12-09T20:40:43.492Z,27.05
2022-12-09T20:43:30.453Z,26.30
2022-12-09T20:46:18.492Z,31.35
2022-12-09T20:49:04.640Z,24.77
2022-12-09T20:51:50.642Z,20.88
2022-12-09T20:54:36.681Z,27.33
2022-12-09T20:57:22.743Z,21.95
2022-12-09T21:00:10.056Z,22.98
2022-12-09T21:02:56.438Z,28.75
2022-12-09T21:05:42.197Z,26.75
2022-12-09T21:08:31.788Z,25.98
2022-12-09T21:11:20.299Z,16.85
2022-12-09T21:14:07.118Z,23.88
2022-12-09T21:16:53.466Z,18.77
2022-12-09T21:19:39.616Z,19.27
2022-12-09T21:22:26.507Z,22.92
2022-12-09T21:25:12.644Z,17.23
2022-12-09T21:27:58.901Z,23.65
2022-12-09T21:30:44.761Z,17.75
2022-12-09T21:33:30.871Z,13.90
2022-12-09T21:36:23.450Z,29.85
2022-12-09T21:39:13.027Z,20.25
2022-12-09T21:41:59.076Z,18.05
2022-12-09T21:44:45.347Z,15.10
2022-12-09T21:47:32.063Z,15.10
2022-12-09T21:50:18.203Z,17.13
2022-12-09T21:53:04.305Z,17.40
2022-12-09T21:55:51.942Z,17.13
2022-12-09T21:58:38.220Z,12.98
2022-12-09T22:01:26.941Z,17.75
2022-12-09T22:04:16.172Z,15.88
2022-12-09T22:07:02.286Z,15.52
2022-12-09T22:09:49.665Z,19.17
2022-12-09T22:12:35.845Z,18.27
2022-12-09T22:15:22.333Z,18.45
2022-12-09T22:18:08.201Z,21.77
2022-12-09T22:21:23.669Z,21.70
2022-12-09T22:24:03.111Z,16.92
2022-12-09T22:26:49.018Z,23.55
2022-12-09T22:29:34.867Z,14.52
2022-12-09T22:32:20.795Z,16.98
2022-12-09T22:35:07.481Z,18.92
2022-12-09T22:37:53.517Z,15.68
2022-12-09T22:40:40.082Z,14.23
2022-12-09T22:43:26.503Z,14.68
2022-12-09T22:46:15.885Z,18.02
2022-12-09T22:49:04.979Z,23.55
2022-12-09T22:51:54.099Z,17.20
2022-12-09T22:54:42.308Z,14.90
2022-12-09T22:57:28.195Z,21.10
2022-12-09T23:00:14.242Z,16.58
2022-12-09T23:03:00.466Z,22.08
2022-12-09T23:05:46.763Z,20.83
2022-12-09T23:08:33.280Z,19.50
2022-12-09T23:11:21.543Z,17.27
2022-12-09T23:14:07.371Z,12.30
2022-12-09T23:16:54.372Z,16.23
2022-12-09T23:19:40.544Z,16.70
2022-12-09T23:22:26.511Z,16.55
2022-12-09T23:25:12.470Z,11.25
2022-12-09T23:27:58.288Z,20.02
2022-12-09T23:30:44.358Z,21.63
2022-12-09T23:33:30.895Z,18.05
2022-12-09T23:36:23.294Z,16.60
2022-12-09T23:39:13.745Z,26.35
2022-12-09T23:41:59.533Z,26.75
2022-12-09T23:44:45.428Z,15.13
2022-12-09T23:47:31.192Z,25.67
2022-12-09T23:50:17.077Z,15.93
2022-12-09T23:53:03.029Z,22.17
2022-12-09T23:55:48.992Z,12.75
2022-12-09T23:58:35.218Z,14.70
